FranceFixed distance
La Grande Course des Templiers
27 Oct2002
Distance
67km
Finishers
1,4481,329 men119 women
Winning time
6:01:40h
Median pace
6.76km/h
Pace distribution
1,448 finishers · 5.40–11.12 km/h · mean 6.95
Every finisher ran the same 67 km course, so these paces are directly comparable.
Histogram of finisher pace. 1,448 finishers ranged from 5.40 to 11.12 kilometres per hour, with a mean of 6.95 and a median of 6.76. The busiest band is 6.0 to 6.5 kilometres per hour, with 322 finishers.
Results
Ranks 1,301–1,350 of 1,448
| Rank | Runner | Time | Pace | Cat. | Placing |
|---|---|---|---|---|---|
| 1301 | Sourdon, JosyaneFranceWoman | 11:37:15h | 5.77 | W50 | 89th F · 7th W50 |
| 1302 | Vuillemet, SylvainFranceMan | 11:37:30h | 5.76 | M40 | 1213th M · 218th M40 |
| 1303 | Pardo, PierreFranceMan | 11:37:33h | 5.76 | M23 | 1214th M · 185th M23 |
| 1304 | Le Garrec, Anne-LaureFranceWoman | 11:37:40h | 5.76 | — | 90th F |
| 1305 | Herry, Jean-YvesFranceMan | 11:38:18h | 5.76 | M55 | 1215th M · 27th M55 |
| 1306 | Boulongne, StephaneFranceMan | 11:39:03h | 5.75 | — | 1216th M |
| 1307 | Lerenard, AlainFranceMan | 11:39:05h | 5.75 | — | 1217th M |
| 1308 | Marche, PhilippeFranceMan | 11:39:07h | 5.75 | M35 | 1218th M · 175th M35 |
| 1309 | Cordonnier, HerveFranceMan | 11:39:08h | 5.75 | M35 | 1219th M · 176th M35 |
| 1310 | Urquijo, VeroniqueFranceWoman | 11:39:10h | 5.75 | W40 | 91st F · 21st W40 |
| 1311 | Legrand, CatherineFranceWoman | 11:39:13h | 5.75 | — | 92nd F |
| 1312 | Rocheteau, NathalieFranceWoman | 11:39:23h | 5.75 | — | 93rd F |
| 1313 | Barnole, SylvainFranceMan | 11:39:32h | 5.75 | M23 | 1220th M · 186th M23 |
| 1314 | Peuch, StephaneFranceMan | 11:39:35h | 5.75 | — | 1221st M |
| 1315 | Bousquet, VincentFranceMan | 11:39:37h | 5.75 | — | 1222nd M |
| 1316 | Lebreuil, GilbertFranceMan | 11:39:40h | 5.75 | M50 | 1223rd M · 89th M50 |
| 1317 | Cazin, ChristopheFranceMan | 11:39:42h | 5.75 | M23 | 1224th M · 187th M23 |
| 1318 | Picard, Jean-JacquesFranceMan | 11:39:49h | 5.74 | M50 | 1225th M · 90th M50 |
| 1319 | Leger, BertrandFranceMan | 11:40:13h | 5.74 | — | 1226th M |
| 1320 | Ghesquiere, MarcFranceMan | 11:40:15h | 5.74 | M45 | 1227th M · 161st M45 |
| 1321 | Viollin, JacquesFranceMan | 11:40:17h | 5.74 | — | 1228th M |
| 1322 | Cottret, DavidFranceMan | 11:40:54h | 5.74 | M23 | 1229th M · 188th M23 |
| 1323 | Plateau, Jean-PaulFranceMan | 11:40:55h | 5.74 | — | 1230th M |
| 1324 | Broussin, ArmandFranceMan | 11:41:19h | 5.73 | — | 1231st M |
| 1325 | Boucher, FrancoiseFranceWoman | 11:41:21h | 5.73 | W50 | 94th F · 8th W50 |
| 1326 | Stevant, BaptisteFranceMan | 11:41:23h | 5.73 | — | 1232nd M |
| 1327 | Charbonnel, PhilippeFranceMan | 11:41:27h | 5.73 | — | 1233rd M |
| 1328 | Tylek, GuyFranceMan | 11:41:32h | 5.73 | — | 1234th M |
| 1329 | Cuisinier, Jean-PhilippeFranceMan | 11:41:34h | 5.73 | — | 1235th M |
| 1330 | Villois, OdileFranceWoman | 11:41:37h | 5.73 | W45 | 95th F · 8th W45 |
| 1331 | Villois, DidierFranceMan | 11:41:39h | 5.73 | M45 | 1236th M · 162nd M45 |
| 1332 | Maury, LaurentFranceMan | 11:41:48h | 5.73 | M23 | 1237th M · 189th M23 |
| 1333 | Lachevre, RemiFranceMan | 11:41:49h | 5.73 | M50 | 1238th M · 91st M50 |
| 1334 | Daniel, GeorgesFranceMan | 11:42:00h | 5.73 | — | 1239th M |
| 1335 | Lovera, MartineFranceWoman | 11:42:22h | 5.72 | W40 | 96th F · 22nd W40 |
| 1336 | Lovera, GeorgesFranceMan | 11:42:23h | 5.72 | — | 1240th M |
| 1337 | Denis, LaurenceFranceWoman | 11:42:41h | 5.72 | — | 97th F |
| 1338 | Blanc, ClaudieFranceWoman | 11:42:47h | 5.72 | W23 | 98th F · 10th W23 |
| 1339 | Richaud, PierreFranceMan | 11:43:00h | 5.72 | M55 | 1241st M · 28th M55 |
| 1340 | Gautreau, AlainFranceMan | 11:43:02h | 5.72 | M45 | 1242nd M · 163rd M45 |
| 1341 | Arene, BenoitFranceMan | 11:43:03h | 5.72 | — | 1243rd M |
| 1342 | Amiel, Jean-PaulFranceMan | 11:43:31h | 5.71 | M55 | 1244th M · 29th M55 |
| 1343 | Jodart, PhilippeFranceMan | 11:43:47h | 5.71 | — | 1245th M |
| 1344 | Fessier, DominiqueFranceMan | 11:43:54h | 5.71 | — | 1246th M |
| 1345 | Panien, ThierryFranceMan | 11:44:02h | 5.71 | — | 1247th M |
| 1346 | Gautier, GillesFranceMan | 11:44:59h | 5.70 | M45 | 1248th M · 164th M45 |
| 1347 | Junis, BernardFranceMan | 11:45:07h | 5.70 | — | 1249th M |
| 1348 | Lienard, GregoryFranceMan | 11:45:32h | 5.70 | M23 | 1250th M · 190th M23 |
| 1349 | Saillard, NicolasFranceMan | 11:45:35h | 5.70 | M23 | 1251st M · 191st M23 |
| 1350 | Vendewoorre, AlainFranceMan | 11:46:21h | 5.69 | M35 | 1252nd M · 177th M35 |
- 1301Sourdon, JosyaneFranceWoman89th F · 7th W50Time11:37:15hPace5.77Cat.W50
- 1302Vuillemet, SylvainFranceMan1213th M · 218th M40Time11:37:30hPace5.76Cat.M40
- 1303Pardo, PierreFranceMan1214th M · 185th M23Time11:37:33hPace5.76Cat.M23
- 1304Le Garrec, Anne-LaureFranceWoman90th FTime11:37:40hPace5.76
- 1305Herry, Jean-YvesFranceMan1215th M · 27th M55Time11:38:18hPace5.76Cat.M55
- 1306Boulongne, StephaneFranceMan1216th MTime11:39:03hPace5.75
- 1307Lerenard, AlainFranceMan1217th MTime11:39:05hPace5.75
- 1308Marche, PhilippeFranceMan1218th M · 175th M35Time11:39:07hPace5.75Cat.M35
- 1309Cordonnier, HerveFranceMan1219th M · 176th M35Time11:39:08hPace5.75Cat.M35
- 1310Urquijo, VeroniqueFranceWoman91st F · 21st W40Time11:39:10hPace5.75Cat.W40
- 1311Legrand, CatherineFranceWoman92nd FTime11:39:13hPace5.75
- 1312Rocheteau, NathalieFranceWoman93rd FTime11:39:23hPace5.75
- 1313Barnole, SylvainFranceMan1220th M · 186th M23Time11:39:32hPace5.75Cat.M23
- 1314Peuch, StephaneFranceMan1221st MTime11:39:35hPace5.75
- 1315Bousquet, VincentFranceMan1222nd MTime11:39:37hPace5.75
- 1316Lebreuil, GilbertFranceMan1223rd M · 89th M50Time11:39:40hPace5.75Cat.M50
- 1317Cazin, ChristopheFranceMan1224th M · 187th M23Time11:39:42hPace5.75Cat.M23
- 1318Picard, Jean-JacquesFranceMan1225th M · 90th M50Time11:39:49hPace5.74Cat.M50
- 1319Leger, BertrandFranceMan1226th MTime11:40:13hPace5.74
- 1320Ghesquiere, MarcFranceMan1227th M · 161st M45Time11:40:15hPace5.74Cat.M45
- 1321Viollin, JacquesFranceMan1228th MTime11:40:17hPace5.74
- 1322Cottret, DavidFranceMan1229th M · 188th M23Time11:40:54hPace5.74Cat.M23
- 1323Plateau, Jean-PaulFranceMan1230th MTime11:40:55hPace5.74
- 1324Broussin, ArmandFranceMan1231st MTime11:41:19hPace5.73
- 1325Boucher, FrancoiseFranceWoman94th F · 8th W50Time11:41:21hPace5.73Cat.W50
- 1326Stevant, BaptisteFranceMan1232nd MTime11:41:23hPace5.73
- 1327Charbonnel, PhilippeFranceMan1233rd MTime11:41:27hPace5.73
- 1328Tylek, GuyFranceMan1234th MTime11:41:32hPace5.73
- 1329Cuisinier, Jean-PhilippeFranceMan1235th MTime11:41:34hPace5.73
- 1330Villois, OdileFranceWoman95th F · 8th W45Time11:41:37hPace5.73Cat.W45
- 1331Villois, DidierFranceMan1236th M · 162nd M45Time11:41:39hPace5.73Cat.M45
- 1332Maury, LaurentFranceMan1237th M · 189th M23Time11:41:48hPace5.73Cat.M23
- 1333Lachevre, RemiFranceMan1238th M · 91st M50Time11:41:49hPace5.73Cat.M50
- 1334Daniel, GeorgesFranceMan1239th MTime11:42:00hPace5.73
- 1335Lovera, MartineFranceWoman96th F · 22nd W40Time11:42:22hPace5.72Cat.W40
- 1336Lovera, GeorgesFranceMan1240th MTime11:42:23hPace5.72
- 1337Denis, LaurenceFranceWoman97th FTime11:42:41hPace5.72
- 1338Blanc, ClaudieFranceWoman98th F · 10th W23Time11:42:47hPace5.72Cat.W23
- 1339Richaud, PierreFranceMan1241st M · 28th M55Time11:43:00hPace5.72Cat.M55
- 1340Gautreau, AlainFranceMan1242nd M · 163rd M45Time11:43:02hPace5.72Cat.M45
- 1341Arene, BenoitFranceMan1243rd MTime11:43:03hPace5.72
- 1342Amiel, Jean-PaulFranceMan1244th M · 29th M55Time11:43:31hPace5.71Cat.M55
- 1343Jodart, PhilippeFranceMan1245th MTime11:43:47hPace5.71
- 1344Fessier, DominiqueFranceMan1246th MTime11:43:54hPace5.71
- 1345Panien, ThierryFranceMan1247th MTime11:44:02hPace5.71
- 1346Gautier, GillesFranceMan1248th M · 164th M45Time11:44:59hPace5.70Cat.M45
- 1347Junis, BernardFranceMan1249th MTime11:45:07hPace5.70
- 1348Lienard, GregoryFranceMan1250th M · 190th M23Time11:45:32hPace5.70Cat.M23
- 1349Saillard, NicolasFranceMan1251st M · 191st M23Time11:45:35hPace5.70Cat.M23
- 1350Vendewoorre, AlainFranceMan1252nd M · 177th M35Time11:46:21hPace5.69Cat.M35
Showing ranks 1,301–1,350 of 1,448